DLH6EV EDDM-LICA
Flight info
| Callsign | DLH6EV |
|---|---|
| Flight time | N/A |
| Altitude | 37000 |
| Route | VAVOR Y106 MODSA DCT DETSA DCT ANC DCT SOR DCT POLIT/N0355F190 M620 ARBUM |
| Aircraft | A321/M-SDE3FGHIRWY/LB1 |
Departure
| Time | 2026-05-06 15:18 |
|---|---|
| Airport | Munich Airport (EDDM) |
Arrival
| Time | N/A |
|---|---|
| Airport | Lamezia Terme Sant'Eufemia International Airport (LICA) |
| Time | Latitude | Longitude | Altitude | Speed | Heading |
|---|---|---|---|---|---|
| 2026-05-06 14:28 | 48.35594 | 11.80242 | 1466 ft | 0 kts | 83° |
| 2026-05-06 14:59 | 48.35592 | 11.80215 | 1436 ft | 4 kts | 84° |
| 2026-05-06 14:59 | 48.35590 | 11.80175 | 1460 ft | 4 kts | 96° |
| 2026-05-06 14:59 | 48.35597 | 11.80142 | 1459 ft | 4 kts | 150° |
| 2026-05-06 14:59 | 48.35604 | 11.80137 | 1457 ft | 0 kts | 173° |
| 2026-05-06 15:05 | 48.35602 | 11.80137 | 1457 ft | 1 kts | 173° |
| 2026-05-06 15:05 | 48.35591 | 11.80139 | 1459 ft | 3 kts | 173° |
| 2026-05-06 15:05 | 48.35567 | 11.80143 | 1462 ft | 4 kts | 173° |
| 2026-05-06 15:05 | 48.35532 | 11.80150 | 1464 ft | 6 kts | 173° |
| 2026-05-06 15:06 | 48.35500 | 11.80156 | 1467 ft | 2 kts | 173° |
| 2026-05-06 15:06 | 48.35483 | 11.80159 | 1461 ft | 3 kts | 173° |
| 2026-05-06 15:06 | 48.35453 | 11.80164 | 1464 ft | 5 kts | 173° |
| 2026-05-06 15:06 | 48.35413 | 11.80175 | 1467 ft | 7 kts | 163° |
| 2026-05-06 15:07 | 48.35363 | 11.80195 | 1463 ft | 8 kts | 172° |
| 2026-05-06 15:07 | 48.35302 | 11.80205 | 1460 ft | 10 kts | 174° |
| 2026-05-06 15:07 | 48.35234 | 11.80217 | 1467 ft | 5 kts | 173° |
| 2026-05-06 15:07 | 48.35226 | 11.80218 | 1467 ft | 0 kts | 173° |
| 2026-05-06 15:08 | 48.35222 | 11.80219 | 1467 ft | 2 kts | 173° |
| 2026-05-06 15:08 | 48.35204 | 11.80222 | 1459 ft | 4 kts | 173° |
| 2026-05-06 15:08 | 48.35174 | 11.80227 | 1463 ft | 5 kts | 173° |
| 2026-05-06 15:08 | 48.35134 | 11.80231 | 1464 ft | 1 kts | 189° |
| 2026-05-06 15:09 | 48.35132 | 11.80224 | 1464 ft | 1 kts | 233° |
| 2026-05-06 15:09 | 48.35132 | 11.80207 | 1461 ft | 4 kts | 265° |
| 2026-05-06 15:09 | 48.35129 | 11.80151 | 1460 ft | 6 kts | 264° |
| 2026-05-06 15:09 | 48.35124 | 11.80075 | 1467 ft | 8 kts | 265° |
| 2026-05-06 15:10 | 48.35117 | 11.79985 | 1467 ft | 10 kts | 264° |
| 2026-05-06 15:10 | 48.35109 | 11.79876 | 1467 ft | 11 kts | 264° |
| 2026-05-06 15:10 | 48.35100 | 11.79752 | 1467 ft | 10 kts | 263° |
| 2026-05-06 15:10 | 48.35096 | 11.79695 | 1464 ft | 3 kts | 264° |
| 2026-05-06 15:11 | 48.35093 | 11.79656 | 1467 ft | 5 kts | 263° |
| 2026-05-06 15:11 | 48.35086 | 11.79592 | 1463 ft | 9 kts | 257° |
| 2026-05-06 15:11 | 48.35030 | 11.79532 | 1463 ft | 11 kts | 184° |
| 2026-05-06 15:11 | 48.34945 | 11.79543 | 1463 ft | 13 kts | 173° |
| 2026-05-06 15:12 | 48.34908 | 11.79550 | 1458 ft | 0 kts | 173° |
| 2026-05-06 15:14 | 48.34904 | 11.79550 | 1459 ft | 1 kts | 173° |
| 2026-05-06 15:14 | 48.34887 | 11.79553 | 1466 ft | 3 kts | 173° |
| 2026-05-06 15:14 | 48.34853 | 11.79560 | 1460 ft | 7 kts | 173° |
| 2026-05-06 15:15 | 48.34792 | 11.79561 | 1462 ft | 10 kts | 188° |
| 2026-05-06 15:15 | 48.34718 | 11.79555 | 1467 ft | 12 kts | 174° |
| 2026-05-06 15:15 | 48.34635 | 11.79540 | 1459 ft | 13 kts | 209° |
| 2026-05-06 15:15 | 48.34572 | 11.79425 | 1464 ft | 16 kts | 233° |
| 2026-05-06 15:16 | 48.34534 | 11.79348 | 1464 ft | 9 kts | 233° |
| 2026-05-06 15:16 | 48.34514 | 11.79307 | 1463 ft | 1 kts | 233° |
| 2026-05-06 15:16 | 48.34507 | 11.79293 | 1463 ft | 3 kts | 233° |
| 2026-05-06 15:17 | 48.34480 | 11.79239 | 1463 ft | 10 kts | 233° |
| 2026-05-06 15:17 | 48.34414 | 11.79126 | 1462 ft | 18 kts | 222° |
| 2026-05-06 15:17 | 48.34361 | 11.78942 | 1463 ft | 23 kts | 262° |
| 2026-05-06 15:17 | 48.34325 | 11.78474 | 1468 ft | 77 kts | 263° |
| 2026-05-06 15:18 | 48.34238 | 11.77324 | 1469 ft | 142 kts | 264° |
| 2026-05-06 15:18 | 48.34124 | 11.75709 | 1937 ft | 157 kts | 265° |
| 2026-05-06 15:18 | 48.34019 | 11.74073 | 2736 ft | 159 kts | 264° |
| 2026-05-06 15:18 | 48.33854 | 11.72354 | 3154 ft | 176 kts | 252° |
| 2026-05-06 15:19 | 48.33023 | 11.70931 | 3415 ft | 197 kts | 202° |
| 2026-05-06 15:19 | 48.31619 | 11.70500 | 3675 ft | 217 kts | 182° |
| 2026-05-06 15:19 | 48.30076 | 11.70458 | 4138 ft | 226 kts | 177° |
| 2026-05-06 15:19 | 48.28545 | 11.70944 | 4869 ft | 226 kts | 153° |
| 2026-05-06 15:20 | 48.27172 | 11.72274 | 5266 ft | 247 kts | 143° |
| 2026-05-06 15:20 | 48.25721 | 11.73850 | 5700 ft | 264 kts | 144° |
| 2026-05-06 15:20 | 48.24198 | 11.75438 | 6403 ft | 270 kts | 146° |
| 2026-05-06 15:20 | 48.22633 | 11.77034 | 6689 ft | 273 kts | 147° |
| 2026-05-06 15:21 | 48.21060 | 11.78619 | 6752 ft | 272 kts | 147° |
| 2026-05-06 15:21 | 48.19476 | 11.80210 | 7128 ft | 275 kts | 147° |
| 2026-05-06 15:21 | 48.17944 | 11.81924 | 7940 ft | 277 kts | 138° |
| 2026-05-06 15:21 | 48.16664 | 11.84118 | 8714 ft | 281 kts | 132° |
| 2026-05-06 15:22 | 48.15418 | 11.86401 | 9462 ft | 285 kts | 133° |
| 2026-05-06 15:22 | 48.14148 | 11.88713 | 10005 ft | 296 kts | 133° |
| 2026-05-06 15:22 | 48.12739 | 11.91106 | 10157 ft | 316 kts | 140° |
| 2026-05-06 15:22 | 48.11047 | 11.93327 | 10513 ft | 328 kts | 142° |
| 2026-05-06 15:23 | 48.09297 | 11.95554 | 11117 ft | 333 kts | 143° |
| 2026-05-06 15:23 | 48.07514 | 11.97794 | 11747 ft | 337 kts | 143° |
| 2026-05-06 15:23 | 48.05705 | 12.00053 | 12365 ft | 340 kts | 144° |
| 2026-05-06 15:23 | 48.03882 | 12.02325 | 13045 ft | 343 kts | 144° |
| 2026-05-06 15:24 | 48.02044 | 12.04619 | 13665 ft | 346 kts | 144° |
| 2026-05-06 15:24 | 48.00188 | 12.06939 | 14255 ft | 349 kts | 145° |
| 2026-05-06 15:24 | 47.98325 | 12.09277 | 14850 ft | 351 kts | 145° |
| 2026-05-06 15:24 | 47.96447 | 12.11637 | 15456 ft | 353 kts | 145° |
| 2026-05-06 15:25 | 47.94498 | 12.13861 | 16038 ft | 351 kts | 153° |
| 2026-05-06 15:25 | 47.92326 | 12.15472 | 16635 ft | 347 kts | 165° |
| 2026-05-06 15:25 | 47.90007 | 12.16389 | 17233 ft | 344 kts | 174° |
| 2026-05-06 15:25 | 47.87644 | 12.17002 | 17841 ft | 345 kts | 174° |
| 2026-05-06 15:26 | 47.85269 | 12.17624 | 18359 ft | 348 kts | 174° |
| 2026-05-06 15:26 | 47.82881 | 12.18257 | 18865 ft | 350 kts | 174° |
| 2026-05-06 15:26 | 47.80475 | 12.18895 | 19372 ft | 352 kts | 174° |
| 2026-05-06 15:26 | 47.78054 | 12.19538 | 19851 ft | 355 kts | 175° |
| 2026-05-06 15:27 | 47.75619 | 12.20184 | 20333 ft | 357 kts | 175° |
| 2026-05-06 15:27 | 47.73169 | 12.20836 | 20806 ft | 359 kts | 175° |